sensor_id;sensor_type;location;lat;lon;timestamp;pressure;altitude;pressure_sealevel;temperature;humidity
45247;BME280;31529;51.158;7.354;2022-07-22T00:00:10;98446.97;;;18.34;97.29
45247;BME280;31529;51.158;7.354;2022-07-22T00:00:36;98443.13;;;18.36;97.54
45247;BME280;31529;51.158;7.354;2022-07-22T00:01:12;98447.75;;;18.35;96.76
45247;BME280;31529;51.158;7.354;2022-07-22T00:01:49;98449.31;;;18.36;96.73
45247;BME280;31529;51.158;7.354;2022-07-22T00:02:25;98446.97;;;18.34;96.64
45247;BME280;31529;51.158;7.354;2022-07-22T00:03:01;98443.13;;;18.36;96.80
45247;BME280;31529;51.158;7.354;2022-07-22T00:03:37;98443.75;;;18.32;96.72
45247;BME280;31529;51.158;7.354;2022-07-22T00:04:13;98442.97;;;18.32;97.32
45247;BME280;31529;51.158;7.354;2022-07-22T00:04:48;98450.75;;;18.33;97.30
45247;BME280;31529;51.158;7.354;2022-07-22T00:05:24;98452.38;;;18.34;96.99
45247;BME280;31529;51.158;7.354;2022-07-22T00:06:01;98448.38;;;18.32;97.51
45247;BME280;31529;51.158;7.354;2022-07-22T00:06:37;98440.75;;;18.34;97.55
45247;BME280;31529;51.158;7.354;2022-07-22T00:07:13;98430.44;;;18.27;96.98
45247;BME280;31529;51.158;7.354;2022-07-22T00:07:49;98445.03;;;18.35;97.17
45247;BME280;31529;51.158;7.354;2022-07-22T00:08:25;98442.97;;;18.32;96.86
45247;BME280;31529;51.158;7.354;2022-07-22T00:09:01;98446.81;;;18.31;97.34
45247;BME280;31529;51.158;7.354;2022-07-22T00:09:38;98445.38;;;18.33;97.05
45247;BME280;31529;51.158;7.354;2022-07-22T00:10:14;98450.75;;;18.33;97.03
45247;BME280;31529;51.158;7.354;2022-07-22T00:10:50;98450.75;;;18.33;97.22
45247;BME280;31529;51.158;7.354;2022-07-22T00:11:26;98442.97;;;18.32;97.20
45247;BME280;31529;51.158;7.354;2022-07-22T00:12:02;98453.00;;;18.31;97.11
45247;BME280;31529;51.158;7.354;2022-07-22T00:12:39;98431.25;;;18.19;96.90
45247;BME280;31529;51.158;7.354;2022-07-22T00:13:15;98454.25;;;18.34;97.07
45247;BME280;31529;51.158;7.354;2022-07-22T00:13:51;98450.28;;;18.31;96.61
45247;BME280;31529;51.158;7.354;2022-07-22T00:14:27;98451.88;;;18.32;97.44
45247;BME280;31529;51.158;7.354;2022-07-22T00:15:03;98440.59;;;18.30;96.95
45247;BME280;31529;51.158;7.354;2022-07-22T00:15:41;98453.00;;;18.31;97.69
45247;BME280;31529;51.158;7.354;2022-07-22T00:16:17;98445.38;;;18.33;96.95
45247;BME280;31529;51.158;7.354;2022-07-22T00:16:53;98443.44;;;18.34;97.24
45247;BME280;31529;51.158;7.354;2022-07-22T00:17:29;98440.75;;;18.34;96.87
45247;BME280;31529;51.158;7.354;2022-07-22T00:17:47;98446.97;;;18.34;96.86
45247;BME280;31529;51.158;7.354;2022-07-22T00:18:03;98438.84;;;18.34;96.28
45247;BME280;31529;51.158;7.354;2022-07-22T00:18:19;98444.56;;;18.33;96.24
45247;BME280;31529;51.158;7.354;2022-07-22T00:18:36;98448.38;;;18.32;96.24
45247;BME280;31529;51.158;7.354;2022-07-22T00:19:01;98446.00;;;18.30;96.72
45247;BME280;31529;51.158;7.354;2022-07-22T00:19:18;98356.53;;;17.76;96.36
45247;BME280;31529;51.158;7.354;2022-07-22T00:19:48;98446.81;;;18.31;96.07
45247;BME280;31529;51.158;7.354;2022-07-22T00:20:10;98442.81;;;18.28;96.69
45247;BME280;31529;51.158;7.354;2022-07-22T00:20:28;98442.81;;;18.28;96.64
45247;BME280;31529;51.158;7.354;2022-07-22T00:20:53;98445.88;;;18.27;96.42
45247;BME280;31529;51.158;7.354;2022-07-22T00:21:29;98439.66;;;18.26;96.84
45247;BME280;31529;51.158;7.354;2022-07-22T00:22:05;98445.06;;;18.26;96.64
45247;BME280;31529;51.158;7.354;2022-07-22T00:22:41;98441.25;;;18.27;96.58
45247;BME280;31529;51.158;7.354;2022-07-22T00:23:17;98446.66;;;18.27;96.52
45247;BME280;31529;51.158;7.354;2022-07-22T00:23:45;98440.47;;;18.27;97.06
45247;BME280;31529;51.158;7.354;2022-07-22T00:24:09;98439.66;;;18.26;96.97
45247;BME280;31529;51.158;7.354;2022-07-22T00:24:28;98448.56;;;18.27;96.42
45247;BME280;31529;51.158;7.354;2022-07-22T00:24:48;98445.88;;;18.27;96.32
45247;BME280;31529;51.158;7.354;2022-07-22T00:25:04;98447.75;;;18.26;96.17
45247;BME280;31529;51.158;7.354;2022-07-22T00:25:32;98442.34;;;18.26;96.86
45247;BME280;31529;51.158;7.354;2022-07-22T00:25:48;98449.66;;;18.26;96.25
45247;BME280;31529;51.158;7.354;2022-07-22T00:26:08;98440.78;;;18.25;96.85
45247;BME280;31529;51.158;7.354;2022-07-22T00:26:28;98444.28;;;18.26;96.84
45247;BME280;31529;51.158;7.354;2022-07-22T00:26:50;98444.28;;;18.26;96.67
45247;BME280;31529;51.158;7.354;2022-07-22T00:27:06;98441.88;;;18.24;96.41
45247;BME280;31529;51.158;7.354;2022-07-22T00:27:23;98441.88;;;18.24;97.00
45247;BME280;31529;51.158;7.354;2022-07-22T00:27:43;98448.06;;;18.25;96.36
45247;BME280;31529;51.158;7.354;2022-07-22T00:28:13;98444.59;;;18.24;96.19
45247;BME280;31529;51.158;7.354;2022-07-22T00:28:38;98447.59;;;18.23;96.46
45247;BME280;31529;51.158;7.354;2022-07-22T00:28:54;98439.84;;;18.21;96.43
45247;BME280;31529;51.158;7.354;2022-07-22T00:29:30;98437.63;;;18.23;96.79
45247;BME280;31529;51.158;7.354;2022-07-22T00:30:06;98440.31;;;18.23;96.44
45247;BME280;31529;51.158;7.354;2022-07-22T00:30:43;98436.34;;;18.21;96.85
45247;BME280;31529;51.158;7.354;2022-07-22T00:31:19;98430.16;;;18.20;97.09
45247;BME280;31529;51.158;7.354;2022-07-22T00:31:55;98436.81;;;18.23;96.76
45247;BME280;31529;51.158;7.354;2022-07-22T00:32:31;98360.81;;;17.68;97.12
45247;BME280;31529;51.158;7.354;2022-07-22T00:33:04;98436.00;;;18.22;97.04
45247;BME280;31529;51.158;7.354;2022-07-22T00:33:40;98434.91;;;18.23;96.58
45247;BME280;31529;51.158;7.354;2022-07-22T00:34:15;98435.22;;;18.22;97.39
45247;BME280;31529;51.158;7.354;2022-07-22T00:34:51;98443.00;;;18.23;96.82
45247;BME280;31529;51.158;7.354;2022-07-22T00:35:27;98438.72;;;18.22;96.58
45247;BME280;31529;51.158;7.354;2022-07-22T00:36:03;98431.09;;;18.24;97.03
45247;BME280;31529;51.158;7.354;2022-07-22T00:36:41;98429.50;;;18.23;96.61
45247;BME280;31529;51.158;7.354;2022-07-22T00:37:17;98433.31;;;18.22;96.81
45247;BME280;31529;51.158;7.354;2022-07-22T00:37:53;98439.50;;;18.23;96.59
45247;BME280;31529;51.158;7.354;2022-07-22T00:38:29;98431.75;;;18.21;96.66
45247;BME280;31529;51.158;7.354;2022-07-22T00:39:05;98441.09;;;18.24;97.14
45247;BME280;31529;51.158;7.354;2022-07-22T00:39:41;98443.81;;;18.24;96.55
45247;BME280;31529;51.158;7.354;2022-07-22T00:40:17;98437.28;;;18.25;96.59
45247;BME280;31529;51.158;7.354;2022-07-22T00:40:53;98431.88;;;18.25;96.97
45247;BME280;31529;51.158;7.354;2022-07-22T00:41:29;98421.41;;;18.23;97.26
45247;BME280;31529;51.158;7.354;2022-07-22T00:42:05;98437.28;;;18.25;97.09
45247;BME280;31529;51.158;7.354;2022-07-22T00:42:41;98431.88;;;18.25;96.68
45247;BME280;31529;51.158;7.354;2022-07-22T00:43:17;98432.69;;;18.25;96.98
45247;BME280;31529;51.158;7.354;2022-07-22T00:44:01;98433.16;;;18.27;96.91
45247;BME280;31529;51.158;7.354;2022-07-22T00:44:38;98430.44;;;18.27;96.84
45247;BME280;31529;51.158;7.354;2022-07-22T00:44:54;98430.44;;;18.27;96.41
45247;BME280;31529;51.158;7.354;2022-07-22T00:45:11;98440.47;;;18.27;96.71
45247;BME280;31529;51.158;7.354;2022-07-22T00:45:27;98435.06;;;18.27;96.82
45247;BME280;31529;51.158;7.354;2022-07-22T00:45:43;98433.94;;;18.28;96.54
45247;BME280;31529;51.158;7.354;2022-07-22T00:45:59;98433.63;;;18.29;96.69
45247;BME280;31529;51.158;7.354;2022-07-22T00:46:36;98430.91;;;18.29;96.33
45247;BME280;31529;51.158;7.354;2022-07-22T00:47:02;98436.31;;;18.29;96.59
45247;BME280;31529;51.158;7.354;2022-07-22T00:47:38;98434.41;;;18.30;96.53
45247;BME280;31529;51.158;7.354;2022-07-22T00:48:15;98350.66;;;17.74;96.65
45247;BME280;31529;51.158;7.354;2022-07-22T00:48:51;98432.03;;;18.28;96.39
45247;BME280;31529;51.158;7.354;2022-07-22T00:49:27;98433.16;;;18.27;96.42
45247;BME280;31529;51.158;7.354;2022-07-22T00:49:43;98433.47;;;18.26;96.13
45247;BME280;31529;51.158;7.354;2022-07-22T00:49:59;98434.25;;;18.26;96.25
45247;BME280;31529;51.158;7.354;2022-07-22T00:50:16;98430.44;;;18.27;96.20
45247;BME280;31529;51.158;7.354;2022-07-22T00:50:36;98348.59;;;17.71;96.02
45247;BME280;31529;51.158;7.354;2022-07-22T00:50:52;98443.16;;;18.27;96.10
45247;BME280;31529;51.158;7.354;2022-07-22T00:51:09;98439.66;;;18.26;96.40
45247;BME280;31529;51.158;7.354;2022-07-22T00:51:26;98430.44;;;18.27;95.89
45247;BME280;31529;51.158;7.354;2022-07-22T00:52:03;98419.69;;;18.10;96.05
45247;BME280;31529;51.158;7.354;2022-07-22T00:52:41;98433.47;;;18.26;96.10
45247;BME280;31529;51.158;7.354;2022-07-22T00:53:17;98433.47;;;18.26;95.96
45247;BME280;31529;51.158;7.354;2022-07-22T00:53:43;98433.47;;;18.26;95.98
45247;BME280;31529;51.158;7.354;2022-07-22T00:54:00;98427.91;;;18.22;96.12
45247;BME280;31529;51.158;7.354;2022-07-22T00:54:18;98436.00;;;18.22;96.38
45247;BME280;31529;51.158;7.354;2022-07-22T00:54:38;98437.16;;;18.21;96.42
45247;BME280;31529;51.158;7.354;2022-07-22T00:55:07;98439.50;;;18.23;96.67
45247;BME280;31529;51.158;7.354;2022-07-22T00:55:44;98442.53;;;18.21;96.85
45247;BME280;31529;51.158;7.354;2022-07-22T00:56:20;98431.09;;;18.24;96.83
45247;BME280;31529;51.158;7.354;2022-07-22T00:56:56;98439.97;;;18.25;96.46
45247;BME280;31529;51.158;7.354;2022-07-22T00:57:33;98441.88;;;18.24;96.47
45247;BME280;31529;51.158;7.354;2022-07-22T00:58:09;98434.91;;;18.23;96.79
45247;BME280;31529;51.158;7.354;2022-07-22T00:58:45;98350.03;;;17.68;96.66
45247;BME280;31529;51.158;7.354;2022-07-22T00:59:24;98426.47;;;18.25;96.76
45247;BME280;31529;51.158;7.354;2022-07-22T01:00:00;98424.25;;;18.27;96.37
45247;BME280;31529;51.158;7.354;2022-07-22T01:00:37;98425.69;;;18.24;96.38
45247;BME280;31529;51.158;7.354;2022-07-22T01:01:13;98436.47;;;18.24;96.52
45247;BME280;31529;51.158;7.354;2022-07-22T01:01:49;98429.50;;;18.23;96.24
45247;BME280;31529;51.158;7.354;2022-07-22T01:02:25;98429.97;;;18.25;96.83
45247;BME280;31529;51.158;7.354;2022-07-22T01:03:01;98425.38;;;18.26;96.67
45247;BME280;31529;51.158;7.354;2022-07-22T01:03:37;98426.63;;;18.28;96.74
45247;BME280;31529;51.158;7.354;2022-07-22T01:04:13;98430.13;;;18.29;96.19
45247;BME280;31529;51.158;7.354;2022-07-22T01:04:49;98424.25;;;18.27;96.52
45247;BME280;31529;51.158;7.354;2022-07-22T01:05:25;98317.50;;;17.56;96.12
45247;BME280;31529;51.158;7.354;2022-07-22T01:06:01;98429.66;;;18.27;96.47
45247;BME280;31529;51.158;7.354;2022-07-22T01:06:37;98428.06;;;18.26;96.02
45247;BME280;31529;51.158;7.354;2022-07-22T01:07:13;98428.06;;;18.26;96.59
45247;BME280;31529;51.158;7.354;2022-07-22T01:07:49;98425.03;;;18.27;96.05
45247;BME280;31529;51.158;7.354;2022-07-22T01:08:25;98430.75;;;18.26;96.50
45247;BME280;31529;51.158;7.354;2022-07-22T01:09:01;98424.56;;;18.25;96.45
45247;BME280;31529;51.158;7.354;2022-07-22T01:09:41;98426.47;;;18.25;96.27
45247;BME280;31529;51.158;7.354;2022-07-22T01:10:19;98423.44;;;18.26;97.00
45247;BME280;31529;51.158;7.354;2022-07-22T01:11:05;98424.25;;;18.27;96.91
45247;BME280;31529;51.158;7.354;2022-07-22T01:11:42;98433.16;;;18.27;96.81
45247;BME280;31529;51.158;7.354;2022-07-22T01:12:18;98432.03;;;18.28;96.71
45247;BME280;31529;51.158;7.354;2022-07-22T01:12:54;98432.84;;;18.29;96.38
45247;BME280;31529;51.158;7.354;2022-07-22T01:13:30;98426.63;;;18.28;96.12
45247;BME280;31529;51.158;7.354;2022-07-22T01:14:06;98427.44;;;18.29;97.00
45247;BME280;31529;51.158;7.354;2022-07-22T01:14:42;98427.09;;;18.30;96.73
45247;BME280;31529;51.158;7.354;2022-07-22T01:15:18;98423.59;;;18.30;96.20
45247;BME280;31529;51.158;7.354;2022-07-22T01:15:54;98428.22;;;18.29;96.43
45247;BME280;31529;51.158;7.354;2022-07-22T01:16:10;98425.97;;;18.31;96.33
45247;BME280;31529;51.158;7.354;2022-07-22T01:16:28;98431.38;;;18.31;96.97
45247;BME280;31529;51.158;7.354;2022-07-22T01:16:44;98419.44;;;18.32;96.43
45247;BME280;31529;51.158;7.354;2022-07-22T01:17:00;98429.16;;;18.33;96.69
45247;BME280;31529;51.158;7.354;2022-07-22T01:17:16;98426.13;;;18.35;96.20
45247;BME280;31529;51.158;7.354;2022-07-22T01:17:52;98422.31;;;18.36;96.53
45247;BME280;31529;51.158;7.354;2022-07-22T01:18:28;98428.53;;;18.37;96.21
45247;BME280;31529;51.158;7.354;2022-07-22T01:19:01;98423.13;;;18.37;96.15
45247;BME280;31529;51.158;7.354;2022-07-22T01:19:18;98431.69;;;18.39;96.29
45247;BME280;31529;51.158;7.354;2022-07-22T01:19:36;98431.69;;;18.39;95.92
45247;BME280;31529;51.158;7.354;2022-07-22T01:19:58;98423.91;;;18.37;96.09
45247;BME280;31529;51.158;7.354;2022-07-22T01:20:16;98426.13;;;18.35;96.01
45247;BME280;31529;51.158;7.354;2022-07-22T01:20:43;98425.34;;;18.34;96.05
45247;BME280;31529;51.158;7.354;2022-07-22T01:21:12;98424.22;;;18.36;95.28
45247;BME280;31529;51.158;7.354;2022-07-22T01:21:50;98429.94;;;18.34;95.77
45247;BME280;31529;51.158;7.354;2022-07-22T01:22:26;98429.16;;;18.33;95.45
45247;BME280;31529;51.158;7.354;2022-07-22T01:23:02;98430.25;;;18.32;95.70
45247;BME280;31529;51.158;7.354;2022-07-22T01:23:38;98432.97;;;18.32;96.46
45247;BME280;31529;51.158;7.354;2022-07-22T01:24:15;98426.78;;;18.32;96.09
45247;BME280;31529;51.158;7.354;2022-07-22T01:24:51;98427.56;;;18.32;96.16
45247;BME280;31529;51.158;7.354;2022-07-22T01:25:27;98420.72;;;18.35;95.89
45247;BME280;31529;51.158;7.354;2022-07-22T01:26:04;98430.75;;;18.34;96.44
45247;BME280;31529;51.158;7.354;2022-07-22T01:26:40;98421.19;;;18.37;96.27
45247;BME280;31529;51.158;7.354;2022-07-22T01:27:16;98423.44;;;18.35;96.05
45247;BME280;31529;51.158;7.354;2022-07-22T01:27:52;98421.50;;;18.36;96.41
45247;BME280;31529;51.158;7.354;2022-07-22T01:28:29;98428.53;;;18.37;95.84
45247;BME280;31529;51.158;7.354;2022-07-22T01:29:04;98425.81;;;18.37;95.96
45247;BME280;31529;51.158;7.354;2022-07-22T01:29:42;98347.94;;;17.91;95.58
45247;BME280;31529;51.158;7.354;2022-07-22T01:30:18;98418.50;;;18.37;95.54
45247;BME280;31529;51.158;7.354;2022-07-22T01:30:54;98423.13;;;18.37;95.94
45247;BME280;31529;51.158;7.354;2022-07-22T01:31:30;98418.81;;;18.36;95.49
45247;BME280;31529;51.158;7.354;2022-07-22T01:32:06;98420.72;;;18.35;95.81
45247;BME280;31529;51.158;7.354;2022-07-22T01:32:42;98419.59;;;18.36;95.69
45247;BME280;31529;51.158;7.354;2022-07-22T01:33:19;98415.78;;;18.37;95.98
45247;BME280;31529;51.158;7.354;2022-07-22T01:33:56;98421.50;;;18.36;95.66
45247;BME280;31529;51.158;7.354;2022-07-22T01:34:32;98423.44;;;18.35;95.89
45247;BME280;31529;51.158;7.354;2022-07-22T01:35:08;98423.13;;;18.37;95.56
45247;BME280;31529;51.158;7.354;2022-07-22T01:35:44;98420.59;;;18.31;95.86
45247;BME280;31529;51.158;7.354;2022-07-22T01:36:20;98416.13;;;18.36;95.36
45247;BME280;31529;51.158;7.354;2022-07-22T01:36:56;98415.31;;;18.35;95.30
45247;BME280;31529;51.158;7.354;2022-07-22T01:37:33;98415.66;;;18.33;95.56
45247;BME280;31529;51.158;7.354;2022-07-22T01:38:09;98415.31;;;18.35;94.92
45247;BME280;31529;51.158;7.354;2022-07-22T01:38:45;98415.97;;;18.32;95.05
45247;BME280;31529;51.158;7.354;2022-07-22T01:39:21;98421.38;;;18.32;95.16
45247;BME280;31529;51.158;7.354;2022-07-22T01:39:57;98412.00;;;18.29;95.70
45247;BME280;31529;51.158;7.354;2022-07-22T01:40:33;98412.00;;;18.29;95.00
45247;BME280;31529;51.158;7.354;2022-07-22T01:41:09;98418.19;;;18.30;95.47
45247;BME280;31529;51.158;7.354;2022-07-22T01:41:45;98416.63;;;18.29;95.12
45247;BME280;31529;51.158;7.354;2022-07-22T01:42:01;98419.31;;;18.29;95.46
45247;BME280;31529;51.158;7.354;2022-07-22T01:42:18;98419.31;;;18.29;95.03
45247;BME280;31529;51.158;7.354;2022-07-22T01:42:34;98414.72;;;18.29;95.69
45247;BME280;31529;51.158;7.354;2022-07-22T01:42:50;98410.41;;;18.28;95.08
45247;BME280;31529;51.158;7.354;2022-07-22T01:43:06;98417.72;;;18.28;95.57
45247;BME280;31529;51.158;7.354;2022-07-22T01:43:30;98417.72;;;18.28;95.33
45247;BME280;31529;51.158;7.354;2022-07-22T01:44:06;98419.66;;;18.27;95.08
45247;BME280;31529;51.158;7.354;2022-07-22T01:44:42;98410.75;;;18.27;95.29
45247;BME280;31529;51.158;7.354;2022-07-22T01:45:05;98414.09;;;18.24;95.23
45247;BME280;31529;51.158;7.354;2022-07-22T01:45:41;98410.25;;;18.25;95.36
45247;BME280;31529;51.158;7.354;2022-07-22T01:46:17;98416.47;;;18.25;95.45
45247;BME280;31529;51.158;7.354;2022-07-22T01:46:53;98416.78;;;18.24;95.44
45247;BME280;31529;51.158;7.354;2022-07-22T01:47:29;98419.81;;;18.22;95.22
45247;BME280;31529;51.158;7.354;2022-07-22T01:48:05;98418.25;;;18.21;95.47
45247;BME280;31529;51.158;7.354;2022-07-22T01:48:41;98414.72;;;18.21;95.80
45247;BME280;31529;51.158;7.354;2022-07-22T01:49:17;98417.41;;;18.21;95.86
45247;BME280;31529;51.158;7.354;2022-07-22T01:49:53;98415.03;;;18.19;96.03
45247;BME280;31529;51.158;7.354;2022-07-22T01:50:29;98420.44;;;18.19;95.38
45247;BME280;31529;51.158;7.354;2022-07-22T01:51:05;98420.44;;;18.19;95.87
45247;BME280;31529;51.158;7.354;2022-07-22T01:51:41;98413.94;;;18.20;95.74
45247;BME280;31529;51.158;7.354;2022-07-22T01:52:17;98420.13;;;18.21;95.83
45247;BME280;31529;51.158;7.354;2022-07-22T01:52:53;98417.41;;;18.21;96.07
45247;BME280;31529;51.158;7.354;2022-07-22T01:53:29;98417.41;;;18.21;95.74
45247;BME280;31529;51.158;7.354;2022-07-22T01:54:05;98416.31;;;18.22;95.73
45247;BME280;31529;51.158;7.354;2022-07-22T01:54:41;98413.63;;;18.22;96.14
45247;BME280;31529;51.158;7.354;2022-07-22T01:55:17;98417.09;;;18.22;96.17
45247;BME280;31529;51.158;7.354;2022-07-22T01:55:34;98420.94;;;18.21;96.03
45247;BME280;31529;51.158;7.354;2022-07-22T01:55:51;98417.09;;;18.22;96.25
45247;BME280;31529;51.158;7.354;2022-07-22T01:56:07;98411.72;;;18.22;95.93
45247;BME280;31529;51.158;7.354;2022-07-22T01:56:23;98422.50;;;18.22;96.29
45247;BME280;31529;51.158;7.354;2022-07-22T01:56:39;98414.88;;;18.24;96.06
45247;BME280;31529;51.158;7.354;2022-07-22T01:56:56;98420.28;;;18.24;95.64
45247;BME280;31529;51.158;7.354;2022-07-22T01:57:13;98415.19;;;18.23;96.08
45247;BME280;31529;51.158;7.354;2022-07-22T01:57:45;98424.09;;;18.23;95.96
45247;BME280;31529;51.158;7.354;2022-07-22T01:58:21;98419.50;;;18.24;95.89
45247;BME280;31529;51.158;7.354;2022-07-22T01:58:47;98416.78;;;18.24;95.64
45247;BME280;31529;51.158;7.354;2022-07-22T01:59:18;98422.97;;;18.24;95.97
45247;BME280;31529;51.158;7.354;2022-07-22T01:59:54;98415.66;;;18.25;95.60
45247;BME280;31529;51.158;7.354;2022-07-22T02:00:31;98420.28;;;18.24;95.25
45247;BME280;31529;51.158;7.354;2022-07-22T02:01:08;98418.72;;;18.23;95.54
45247;BME280;31529;51.158;7.354;2022-07-22T02:01:44;98425.22;;;18.22;95.75
45247;BME280;31529;51.158;7.354;2022-07-22T02:02:12;98419.81;;;18.22;95.34
45247;BME280;31529;51.158;7.354;2022-07-22T02:02:48;98419.81;;;18.22;95.93
45247;BME280;31529;51.158;7.354;2022-07-22T02:03:24;98419.81;;;18.22;95.25
45247;BME280;31529;51.158;7.354;2022-07-22T02:03:56;98421.41;;;18.23;95.58
45247;BME280;31529;51.158;7.354;2022-07-22T02:04:13;98414.88;;;18.24;95.49
45247;BME280;31529;51.158;7.354;2022-07-22T02:04:29;98418.72;;;18.23;95.19
45247;BME280;31529;51.158;7.354;2022-07-22T02:04:46;98421.88;;;18.25;95.66
45247;BME280;31529;51.158;7.354;2022-07-22T02:05:09;98418.03;;;18.26;95.67
45247;BME280;31529;51.158;7.354;2022-07-22T02:05:35;98423.75;;;18.25;95.09
45247;BME280;31529;51.158;7.354;2022-07-22T02:06:11;98417.25;;;18.26;95.42
45247;BME280;31529;51.158;7.354;2022-07-22T02:06:47;98423.44;;;18.26;94.96
45247;BME280;31529;51.158;7.354;2022-07-22T02:07:23;98419.97;;;18.26;94.60
45247;BME280;31529;51.158;7.354;2022-07-22T02:08:02;98249.50;;;17.15;94.95
45247;BME280;31529;51.158;7.354;2022-07-22T02:08:40;98418.72;;;18.23;95.08
45247;BME280;31529;51.158;7.354;2022-07-22T02:09:16;98419.03;;;18.22;94.91
45247;BME280;31529;51.158;7.354;2022-07-22T02:09:52;98413.94;;;18.20;94.48
45247;BME280;31529;51.158;7.354;2022-07-22T02:10:28;98417.75;;;18.19;95.52
45247;BME280;31529;51.158;7.354;2022-07-22T02:11:04;98417.41;;;18.21;94.71
45247;BME280;31529;51.158;7.354;2022-07-22T02:11:41;98415.84;;;18.20;95.17
45247;BME280;31529;51.158;7.354;2022-07-22T02:12:16;98417.75;;;18.19;94.69
45247;BME280;31529;51.158;7.354;2022-07-22T02:12:53;98417.28;;;18.17;95.41
45247;BME280;31529;51.158;7.354;2022-07-22T02:13:29;98419.97;;;18.17;95.24
45247;BME280;31529;51.158;7.354;2022-07-22T02:13:56;98417.28;;;18.17;95.41
45247;BME280;31529;51.158;7.354;2022-07-22T02:14:12;98419.66;;;18.19;95.40
45247;BME280;31529;51.158;7.354;2022-07-22T02:14:28;98420.44;;;18.19;95.08
45247;BME280;31529;51.158;7.354;2022-07-22T02:14:44;98421.56;;;18.18;95.02
45247;BME280;31529;51.158;7.354;2022-07-22T02:15:00;98420.78;;;18.18;95.25
45247;BME280;31529;51.158;7.354;2022-07-22T02:15:19;98426.19;;;18.18;95.21
45247;BME280;31529;51.158;7.354;2022-07-22T02:15:55;98415.38;;;18.18;95.15
45247;BME280;31529;51.158;7.354;2022-07-22T02:16:31;98419.19;;;18.17;95.55
45247;BME280;31529;51.158;7.354;2022-07-22T02:17:07;98416.50;;;18.17;95.37
45247;BME280;31529;51.158;7.354;2022-07-22T02:17:43;98412.22;;;18.16;95.41
45247;BME280;31529;51.158;7.354;2022-07-22T02:18:19;98425.72;;;18.16;95.13
45247;BME280;31529;51.158;7.354;2022-07-22T02:18:55;98415.69;;;18.16;95.38
45247;BME280;31529;51.158;7.354;2022-07-22T02:19:31;98416.81;;;18.15;95.69
45247;BME280;31529;51.158;7.354;2022-07-22T02:20:07;98411.41;;;18.15;95.19
45247;BME280;31529;51.158;7.354;2022-07-22T02:20:40;98409.84;;;18.14;96.12
45247;BME280;31529;51.158;7.354;2022-07-22T02:20:56;98416.03;;;18.14;95.85
45247;BME280;31529;51.158;7.354;2022-07-22T02:21:12;98415.22;;;18.14;96.03
45247;BME280;31529;51.158;7.354;2022-07-22T02:21:29;98411.41;;;18.15;95.79
45247;BME280;31529;51.158;7.354;2022-07-22T02:22:00;98413.00;;;18.16;96.35
45247;BME280;31529;51.158;7.354;2022-07-22T02:22:36;98407.59;;;18.16;95.82
45247;BME280;31529;51.158;7.354;2022-07-22T02:23:12;98407.28;;;18.18;95.83
45247;BME280;31529;51.158;7.354;2022-07-22T02:23:48;98406.16;;;18.19;95.74
45247;BME280;31529;51.158;7.354;2022-07-22T02:24:24;98408.06;;;18.18;96.04
45247;BME280;31529;51.158;7.354;2022-07-22T02:25:00;98410.78;;;18.18;95.90
45247;BME280;31529;51.158;7.354;2022-07-22T02:25:36;98406.94;;;18.19;95.31
45247;BME280;31529;51.158;7.354;2022-07-22T02:26:13;98408.53;;;18.20;95.50
45247;BME280;31529;51.158;7.354;2022-07-22T02:26:49;98411.25;;;18.20;95.61
45247;BME280;31529;51.158;7.354;2022-07-22T02:27:25;98412.34;;;18.19;95.93
45247;BME280;31529;51.158;7.354;2022-07-22T02:27:42;98415.03;;;18.19;95.10
45247;BME280;31529;51.158;7.354;2022-07-22T02:27:58;98413.94;;;18.20;95.02
45247;BME280;31529;51.158;7.354;2022-07-22T02:28:15;98412.84;;;18.21;95.63
45247;BME280;31529;51.158;7.354;2022-07-22T02:28:31;98410.13;;;18.21;95.00
45247;BME280;31529;51.158;7.354;2022-07-22T02:29:07;98409.63;;;18.19;95.05
45247;BME280;31529;51.158;7.354;2022-07-22T02:29:43;98410.78;;;18.18;94.97
45247;BME280;31529;51.158;7.354;2022-07-22T02:30:20;98405.38;;;18.18;95.20
45247;BME280;31529;51.158;7.354;2022-07-22T02:30:56;98412.34;;;18.19;95.38
45247;BME280;31529;51.158;7.354;2022-07-22T02:31:31;98415.03;;;18.19;95.33
45247;BME280;31529;51.158;7.354;2022-07-22T02:32:07;98406.94;;;18.19;95.26
45247;BME280;31529;51.158;7.354;2022-07-22T02:32:43;98410.78;;;18.18;95.70
45247;BME280;31529;51.158;7.354;2022-07-22T02:33:19;98410.78;;;18.18;95.31
45247;BME280;31529;51.158;7.354;2022-07-22T02:33:55;98325.13;;;17.63;95.08
45247;BME280;31529;51.158;7.354;2022-07-22T02:34:31;98411.09;;;18.17;95.47
45247;BME280;31529;51.158;7.354;2022-07-22T02:35:07;98403.78;;;18.17;95.76
45247;BME280;31529;51.158;7.354;2022-07-22T02:35:23;98409.16;;;18.17;95.98
45247;BME280;31529;51.158;7.354;2022-07-22T02:35:40;98409.16;;;18.17;95.12
45247;BME280;31529;51.158;7.354;2022-07-22T02:35:56;98415.38;;;18.18;95.80
45247;BME280;31529;51.158;7.354;2022-07-22T02:36:13;98410.78;;;18.18;95.64
45247;BME280;31529;51.158;7.354;2022-07-22T02:36:29;98405.38;;;18.18;95.76
45247;BME280;31529;51.158;7.354;2022-07-22T02:36:46;98410.44;;;18.20;95.99
45247;BME280;31529;51.158;7.354;2022-07-22T02:37:11;98412.34;;;18.19;96.26
45247;BME280;31529;51.158;7.354;2022-07-22T02:37:47;98403.13;;;18.20;96.04
45247;BME280;31529;51.158;7.354;2022-07-22T02:38:23;98404.72;;;18.21;96.06
45247;BME280;31529;51.158;7.354;2022-07-22T02:38:59;98316.06;;;17.67;95.63
45247;BME280;31529;51.158;7.354;2022-07-22T02:39:35;98407.09;;;18.23;95.81
45247;BME280;31529;51.158;7.354;2022-07-22T02:40:11;98407.09;;;18.23;95.80
45247;BME280;31529;51.158;7.354;2022-07-22T02:40:47;98407.44;;;18.21;94.91
45247;BME280;31529;51.158;7.354;2022-07-22T02:41:23;98409.31;;;18.21;95.34
45247;BME280;31529;51.158;7.354;2022-07-22T02:41:59;98410.13;;;18.21;95.74
45247;BME280;31529;51.158;7.354;2022-07-22T02:42:18;98404.72;;;18.21;95.64
45247;BME280;31529;51.158;7.354;2022-07-22T02:42:34;98329.53;;;17.67;95.43
45247;BME280;31529;51.158;7.354;2022-07-22T02:42:52;98410.13;;;18.21;95.72